Time;durP1;ratioP1;P1;durP2;ratioP2;P2;SDS_P1;SDS_P2;PMS_P1;PMS_P2;Temp;Humidity;BMP_temperature;BMP_pressure;BME280_temperature;BME280_humidity;BME280_pressure;Samples;Min_cycle;Max_cycle;Signal;HPM_P1;HPM_P2
2023/12/04 00:00:15;;;;;;;7.10;6.40;;;21.00;54.40;;;;;;4990737;28;20463;-78
2023/12/04 00:02:42;;;;;;;7.17;6.57;;;21.00;54.50;;;;;;4989017;28;20982;-82
2023/12/04 00:05:10;;;;;;;8.13;7.33;;;21.00;54.50;;;;;;4997301;28;20529;-81
2023/12/04 00:07:40;;;;;;;6.20;5.70;;;21.00;54.50;;;;;;5006426;28;20542;-78
2023/12/04 00:10:09;;;;;;;7.10;6.40;;;21.00;54.60;;;;;;4992161;28;20481;-78
2023/12/04 00:12:37;;;;;;;7.10;6.50;;;21.00;54.60;;;;;;4983745;28;20463;-79
2023/12/04 00:15:07;;;;;;;6.33;5.73;;;20.90;54.70;;;;;;4980956;28;20469;-78
2023/12/04 00:17:39;;;;;;;6.80;6.20;;;20.90;54.70;;;;;;4991301;28;20479;-79
2023/12/04 00:20:09;;;;;;;6.33;5.73;;;20.90;54.70;;;;;;4984472;28;20462;-78
2023/12/04 00:22:37;;;;;;;5.63;5.23;;;20.90;54.70;;;;;;4992194;28;20474;-78
2023/12/04 00:25:08;;;;;;;6.80;6.17;;;20.90;54.70;;;;;;4985680;28;20975;-79
2023/12/04 00:27:36;;;;;;;6.23;5.40;;;20.90;54.90;;;;;;4989655;28;20788;-78
2023/12/04 00:30:06;;;;;;;6.50;5.90;;;20.90;54.90;;;;;;4991738;28;20475;-78
2023/12/04 00:32:34;;;;;;;5.90;5.30;;;20.80;54.90;;;;;;4989984;28;20480;-81
2023/12/04 00:35:02;;;;;;;6.37;5.77;;;20.80;55.00;;;;;;4991709;28;20949;-79
2023/12/04 00:37:30;;;;;;;6.23;5.70;;;20.80;55.00;;;;;;4992380;28;20443;-80
2023/12/04 00:39:59;;;;;;;5.73;5.13;;;20.80;55.00;;;;;;4987134;28;20467;-78
2023/12/04 00:42:29;;;;;;;5.97;5.47;;;20.80;55.00;;;;;;4980239;28;20549;-83
2023/12/04 00:44:57;;;;;;;5.30;4.83;;;20.80;55.10;;;;;;4988682;28;20459;-78
2023/12/04 00:47:25;;;;;;;6.60;6.10;;;20.70;55.10;;;;;;4989903;28;20880;-81
2023/12/04 00:49:53;;;;;;;6.50;5.90;;;20.70;55.10;;;;;;4975405;28;21030;-78
2023/12/04 00:52:22;;;;;;;6.23;5.70;;;20.70;55.10;;;;;;4991404;28;20509;-78
2023/12/04 00:54:50;;;;;;;5.60;5.20;;;20.70;55.20;;;;;;4991008;28;20522;-78
2023/12/04 00:57:18;;;;;;;6.10;5.60;;;20.70;55.20;;;;;;4992057;28;21018;-78
2023/12/04 00:59:52;;;;;;;6.10;5.50;;;20.70;55.20;;;;;;4991775;28;20664;-79
2023/12/04 01:02:20;;;;;;;6.10;5.50;;;20.70;55.20;;;;;;4975625;28;20494;-79
2023/12/04 01:04:49;;;;;;;5.70;5.13;;;20.70;55.20;;;;;;4985800;28;20482;-78
2023/12/04 01:07:17;;;;;;;6.47;5.87;;;20.70;55.20;;;;;;4990390;28;20914;-78
2023/12/04 01:09:45;;;;;;;5.17;4.77;;;20.70;55.20;;;;;;4992190;28;20989;-79
2023/12/04 01:12:13;;;;;;;5.37;4.87;;;20.60;55.30;;;;;;4991046;28;20454;-78
2023/12/04 01:14:42;;;;;;;5.83;5.33;;;20.60;55.30;;;;;;4988217;28;20838;-83
2023/12/04 01:17:11;;;;;;;5.53;5.03;;;20.60;55.30;;;;;;4991953;28;20482;-78
2023/12/04 01:19:41;;;;;;;6.40;5.83;;;20.60;55.30;;;;;;4983379;28;20469;-78
2023/12/04 01:22:09;;;;;;;5.70;5.20;;;20.60;55.30;;;;;;4989832;28;21049;-78
2023/12/04 01:24:37;;;;;;;5.77;5.20;;;20.60;55.40;;;;;;4991122;28;20457;-81
2023/12/04 01:27:06;;;;;;;6.30;5.70;;;20.60;55.40;;;;;;4991244;28;20455;-79
2023/12/04 01:29:34;;;;;;;5.77;5.27;;;20.60;55.40;;;;;;4991763;28;20493;-78
2023/12/04 01:32:03;;;;;;;5.50;5.10;;;20.50;55.40;;;;;;4979255;28;20467;-83
2023/12/04 01:34:32;;;;;;;7.10;4.87;;;20.50;55.40;;;;;;4991657;28;20475;-78
2023/12/04 01:37:01;;;;;;;5.20;4.70;;;20.50;55.50;;;;;;5000009;28;20459;-79
2023/12/04 01:39:29;;;;;;;5.10;4.70;;;20.50;55.50;;;;;;4989720;28;20462;-78
2023/12/04 01:41:57;;;;;;;4.63;4.23;;;20.50;55.50;;;;;;4989325;28;20467;-79
2023/12/04 01:44:25;;;;;;;5.23;4.73;;;20.50;55.50;;;;;;4990873;28;20469;-79
2023/12/04 01:46:54;;;;;;;5.60;5.10;;;20.50;55.50;;;;;;4991261;28;20458;-78
2023/12/04 01:49:22;;;;;;;5.60;5.20;;;20.40;55.60;;;;;;4988291;28;20986;-78
2023/12/04 01:51:52;;;;;;;5.07;4.67;;;20.40;55.60;;;;;;4981177;28;20536;-79
2023/12/04 01:54:21;;;;;;;5.60;5.10;;;20.40;55.60;;;;;;4989473;28;21037;-81
2023/12/04 01:56:50;;;;;;;4.70;4.37;;;20.40;55.60;;;;;;4991086;28;20511;-79
2023/12/04 01:59:18;;;;;;;5.37;4.97;;;20.40;55.60;;;;;;4992131;28;20461;-78
2023/12/04 02:01:47;;;;;;;5.03;4.63;;;20.40;55.60;;;;;;4996815;28;20447;-78
2023/12/04 02:04:15;;;;;;;5.57;5.07;;;20.40;55.60;;;;;;4990526;28;20500;-78
2023/12/04 02:06:43;;;;;;;4.97;4.57;;;20.40;55.60;;;;;;4992181;28;20515;-78
2023/12/04 02:09:16;;;;;;;5.03;4.60;;;20.40;55.60;;;;;;4985911;28;20727;-78
2023/12/04 02:11:44;;;;;;;5.60;4.97;;;20.40;55.70;;;;;;4992537;28;20580;-78
2023/12/04 02:14:12;;;;;;;5.07;4.70;;;20.30;55.70;;;;;;4994275;28;20544;-78
2023/12/04 02:16:43;;;;;;;5.23;4.83;;;20.30;55.70;;;;;;5003905;28;20687;-79
2023/12/04 02:19:13;;;;;;;4.90;4.50;;;20.30;55.70;;;;;;4994569;28;20461;-81
2023/12/04 02:21:42;;;;;;;5.30;4.80;;;20.30;55.70;;;;;;4994582;28;20462;-79
2023/12/04 02:24:11;;;;;;;5.10;4.70;;;20.30;55.80;;;;;;4994042;28;20454;-78
2023/12/04 02:26:45;;;;;;;5.53;4.93;;;20.30;55.80;;;;;;4990138;28;20465;-79
2023/12/04 02:29:22;;;;;;;5.50;5.07;;;20.30;55.80;;;;;;4989469;28;20871;-78
2023/12/04 02:31:52;;;;;;;5.30;4.90;;;20.20;55.80;;;;;;4994152;28;20527;-81
2023/12/04 02:34:21;;;;;;;4.70;4.30;;;20.20;55.80;;;;;;4993758;28;20473;-79
2023/12/04 02:36:51;;;;;;;4.87;4.37;;;20.20;55.80;;;;;;4987784;28;20458;-78
2023/12/04 02:39:21;;;;;;;5.67;5.17;;;20.20;55.80;;;;;;4988890;28;20453;-78
2023/12/04 02:41:50;;;;;;;5.10;4.60;;;20.20;55.80;;;;;;4976207;28;20439;-78
2023/12/04 02:44:18;;;;;;;4.70;4.30;;;20.20;55.80;;;;;;4989884;28;20946;-78
2023/12/04 02:46:47;;;;;;;4.77;4.37;;;20.20;55.80;;;;;;4983083;28;20979;-78
2023/12/04 02:49:16;;;;;;;4.53;4.23;;;20.20;55.80;;;;;;4975265;28;20431;-78
2023/12/04 02:51:44;;;;;;;4.13;3.83;;;20.20;55.80;;;;;;4973424;28;20926;-78
2023/12/04 02:54:13;;;;;;;5.67;5.00;;;20.20;55.70;;;;;;4987461;28;20446;-78
2023/12/04 02:56:42;;;;;;;4.67;4.27;;;20.20;55.80;;;;;;4994412;28;20457;-79
2023/12/04 02:59:13;;;;;;;5.23;4.77;;;20.20;55.80;;;;;;4994275;28;20419;-82
2023/12/04 03:01:41;;;;;;;4.57;4.20;;;20.20;55.80;;;;;;4979881;28;20516;-80
2023/12/04 03:04:09;;;;;;;5.00;4.60;;;20.20;55.80;;;;;;4986382;28;20485;-79
2023/12/04 03:06:38;;;;;;;4.17;3.83;;;20.20;55.80;;;;;;4993607;28;20459;-78
2023/12/04 03:09:06;;;;;;;4.27;3.87;;;20.20;55.80;;;;;;4993799;28;20548;-78
2023/12/04 03:11:34;;;;;;;5.00;4.60;;;20.10;55.90;;;;;;4992536;28;20891;-78
2023/12/04 03:14:04;;;;;;;5.20;4.80;;;20.10;55.90;;;;;;4992457;28;20958;-79
2023/12/04 03:16:32;;;;;;;4.67;4.27;;;20.10;55.90;;;;;;4991456;28;20540;-78
2023/12/04 03:19:00;;;;;;;4.27;3.87;;;20.10;55.90;;;;;;4993433;28;20442;-79
2023/12/04 03:21:29;;;;;;;5.00;4.60;;;20.10;56.00;;;;;;4993338;28;20987;-79
2023/12/04 03:23:58;;;;;;;4.67;4.27;;;20.10;56.00;;;;;;4990487;28;20454;-79
2023/12/04 03:26:28;;;;;;;4.10;3.80;;;20.00;56.00;;;;;;4990405;28;20469;-81
2023/12/04 03:28:56;;;;;;;4.30;3.90;;;20.00;56.00;;;;;;4990847;28;20498;-78
2023/12/04 03:31:26;;;;;;;4.30;3.90;;;20.00;56.00;;;;;;4991324;28;20522;-81
2023/12/04 03:33:54;;;;;;;4.20;3.80;;;20.00;56.10;;;;;;4993208;28;20492;-78
2023/12/04 03:36:23;;;;;;;4.97;4.47;;;20.00;56.20;;;;;;4993576;28;20537;-78
2023/12/04 03:38:51;;;;;;;4.70;4.40;;;20.00;56.20;;;;;;4980065;28;20502;-79
2023/12/04 03:41:19;;;;;;;4.90;4.50;;;20.00;56.20;;;;;;4988742;28;20544;-78
2023/12/04 03:43:47;;;;;;;4.80;4.30;;;20.00;56.20;;;;;;4993177;28;20944;-78
2023/12/04 03:46:15;;;;;;;3.73;3.43;;;20.00;56.20;;;;;;4992563;28;20489;-78
2023/12/04 03:48:47;;;;;;;4.40;4.03;;;19.90;56.20;;;;;;4991976;28;20469;-78
2023/12/04 03:51:15;;;;;;;3.70;3.40;;;19.90;56.20;;;;;;5010657;28;20877;-78
2023/12/04 03:53:43;;;;;;;4.40;4.00;;;19.90;56.20;;;;;;4992732;28;20457;-78
2023/12/04 03:56:12;;;;;;;4.23;3.83;;;19.90;56.30;;;;;;4989555;28;20458;-80
2023/12/04 03:58:40;;;;;;;4.43;4.03;;;19.90;56.30;;;;;;4980006;28;20472;-84
2023/12/04 04:01:08;;;;;;;4.93;4.53;;;19.90;56.30;;;;;;4974934;28;20477;-79
2023/12/04 04:03:36;;;;;;;3.80;3.50;;;19.90;56.30;;;;;;4993504;28;20838;-78
2023/12/04 04:06:07;;;;;;;4.67;4.27;;;19.90;56.30;;;;;;5008827;28;20442;-84
2023/12/04 04:08:35;;;;;;;4.50;4.10;;;19.90;56.30;;;;;;4993904;28;20462;-78
2023/12/04 04:11:04;;;;;;;4.27;3.93;;;19.90;56.30;;;;;;4991228;28;20466;-81
2023/12/04 04:13:32;;;;;;;5.00;4.60;;;19.90;56.40;;;;;;5006937;28;20825;-78
2023/12/04 04:16:01;;;;;;;3.83;3.53;;;19.80;56.30;;;;;;4985684;28;20465;-79
2023/12/04 04:18:29;;;;;;;4.77;4.37;;;19.90;56.40;;;;;;4985713;28;20449;-78
2023/12/04 04:20:58;;;;;;;4.00;3.70;;;19.80;56.40;;;;;;4997967;28;20470;-80
2023/12/04 04:23:27;;;;;;;3.20;3.00;;;19.80;56.40;;;;;;5010568;28;20430;-79
2023/12/04 04:25:55;;;;;;;4.10;3.80;;;19.80;56.40;;;;;;4991214;28;20458;-79
2023/12/04 04:28:24;;;;;;;4.37;3.97;;;19.80;56.40;;;;;;4992591;28;20434;-78
2023/12/04 04:30:52;;;;;;;3.83;3.53;;;19.80;56.40;;;;;;4990823;28;20462;-80
2023/12/04 04:33:20;;;;;;;4.80;4.30;;;19.80;56.40;;;;;;4993264;28;20473;-82
2023/12/04 04:35:48;;;;;;;3.97;3.57;;;19.80;56.40;;;;;;4986929;28;20510;-78
2023/12/04 04:38:16;;;;;;;3.67;3.40;;;19.80;56.50;;;;;;4992251;28;20488;-78
2023/12/04 04:40:46;;;;;;;4.17;3.87;;;19.70;56.50;;;;;;4979876;28;20871;-78
2023/12/04 04:43:14;;;;;;;3.90;3.60;;;19.70;56.40;;;;;;4977787;28;20454;-78
2023/12/04 04:45:42;;;;;;;3.83;3.53;;;19.70;56.50;;;;;;4991484;28;20470;-82
2023/12/04 04:48:11;;;;;;;3.40;3.20;;;19.70;56.50;;;;;;4993526;28;20461;-79
2023/12/04 04:50:39;;;;;;;3.50;3.30;;;19.70;56.50;;;;;;4990367;28;20504;-78
2023/12/04 04:53:07;;;;;;;4.13;3.73;;;19.70;56.50;;;;;;4985611;28;21295;-78
2023/12/04 04:55:35;;;;;;;4.07;3.77;;;19.70;56.50;;;;;;4975538;28;20478;-79
2023/12/04 04:58:18;;;;;;;3.90;3.60;;;19.70;56.50;;;;;;4992037;28;20470;-78
2023/12/04 05:00:46;;;;;;;3.50;3.20;;;19.70;56.50;;;;;;4988713;28;20473;-79
2023/12/04 05:03:15;;;;;;;3.13;2.93;;;19.70;56.50;;;;;;4992619;28;20488;-78
2023/12/04 05:05:43;;;;;;;3.70;3.40;;;19.70;56.60;;;;;;4990611;28;20462;-80
2023/12/04 05:08:11;;;;;;;3.37;3.10;;;19.70;56.60;;;;;;4985558;28;20455;-78
2023/12/04 05:10:39;;;;;;;3.70;3.40;;;19.70;56.60;;;;;;4988634;28;21084;-80
2023/12/04 05:13:08;;;;;;;3.50;3.20;;;19.80;56.60;;;;;;4982915;28;20481;-78
2023/12/04 05:15:38;;;;;;;3.27;3.07;;;19.80;56.60;;;;;;4988300;28;20978;-78
2023/12/04 05:18:06;;;;;;;3.53;3.33;;;19.80;56.60;;;;;;4992306;28;20788;-83
2023/12/04 05:20:34;;;;;;;3.40;3.20;;;19.90;56.50;;;;;;4991363;28;20949;-78
2023/12/04 05:23:03;;;;;;;4.03;3.73;;;19.90;56.50;;;;;;4989938;28;20863;-79
2023/12/04 05:25:31;;;;;;;3.03;2.83;;;20.00;56.40;;;;;;4988103;28;20807;-81
2023/12/04 05:28:08;;;;;;;3.40;3.10;;;20.00;56.30;;;;;;4987172;28;20953;-78
2023/12/04 05:30:38;;;;;;;3.40;3.20;;;20.10;56.20;;;;;;4981507;28;20462;-78
2023/12/04 05:33:07;;;;;;;3.67;3.37;;;20.20;56.20;;;;;;4996409;28;20523;-78
2023/12/04 05:35:37;;;;;;;3.57;3.37;;;20.20;56.20;;;;;;4990399;28;20986;-82
2023/12/04 05:38:05;;;;;;;3.70;3.50;;;20.30;56.10;;;;;;4990609;28;21012;-79
2023/12/04 05:40:33;;;;;;;3.23;3.03;;;20.40;56.00;;;;;;4994570;28;20466;-78
2023/12/04 05:43:01;;;;;;;3.20;3.00;;;20.40;56.00;;;;;;4992727;28;20446;-79
2023/12/04 05:45:30;;;;;;;3.10;2.90;;;20.50;56.00;;;;;;4992070;28;20960;-83
2023/12/04 05:48:00;;;;;;;3.60;3.30;;;20.50;55.90;;;;;;4990271;28;20518;-79
2023/12/04 05:50:28;;;;;;;3.40;3.13;;;20.60;55.80;;;;;;5004047;28;20837;-83
2023/12/04 05:52:56;;;;;;;3.70;3.40;;;20.70;55.80;;;;;;4994711;28;20476;-79
2023/12/04 05:55:24;;;;;;;3.60;3.30;;;20.70;55.80;;;;;;4994005;28;20465;-78
2023/12/04 05:57:52;;;;;;;3.67;3.37;;;20.80;55.70;;;;;;4993922;28;20463;-80
2023/12/04 06:00:21;;;;;;;3.63;3.43;;;20.90;55.70;;;;;;4988762;28;20471;-84
2023/12/04 06:02:56;;;;;;;3.70;3.40;;;21.00;55.50;;;;;;4989784;28;20487;-79
2023/12/04 06:05:26;;;;;;;3.50;3.20;;;21.00;55.40;;;;;;4995039;28;20485;-81
2023/12/04 06:07:54;;;;;;;3.40;3.20;;;21.10;55.40;;;;;;4984967;28;20822;-79
2023/12/04 06:10:22;;;;;;;2.83;2.63;;;21.20;55.30;;;;;;4992378;28;20512;-78
2023/12/04 06:12:50;;;;;;;3.70;3.40;;;21.20;55.20;;;;;;4994785;28;20572;-79
2023/12/04 06:15:19;;;;;;;3.40;3.10;;;21.30;55.10;;;;;;5000627;28;21224;-77
2023/12/04 06:17:47;;;;;;;3.20;3.00;;;21.30;55.10;;;;;;4984042;28;20468;-82
2023/12/04 06:20:15;;;;;;;3.10;2.90;;;21.30;55.00;;;;;;4985061;28;20819;-78
2023/12/04 06:22:45;;;;;;;4.33;4.03;;;21.30;55.00;;;;;;4986134;28;20977;-78
2023/12/04 06:25:15;;;;;;;2.67;2.47;;;21.30;55.00;;;;;;4982178;28;20470;-77
2023/12/04 06:27:44;;;;;;;3.90;3.60;;;21.30;55.00;;;;;;4990134;28;20466;-79
2023/12/04 06:30:13;;;;;;;3.83;3.53;;;21.30;55.00;;;;;;4988433;28;20541;-77
2023/12/04 06:32:42;;;;;;;2.93;2.73;;;21.30;55.00;;;;;;4988284;28;20478;-78
2023/12/04 06:35:12;;;;;;;3.00;2.80;;;21.30;55.00;;;;;;4982726;28;20474;-87
2023/12/04 06:37:44;;;;;;;3.17;2.97;;;21.30;55.00;;;;;;4983885;28;20878;-81
2023/12/04 06:40:14;;;;;;;3.03;2.83;;;21.30;55.00;;;;;;4992973;28;20463;-79
2023/12/04 06:42:43;;;;;;;2.50;2.33;;;21.30;55.10;;;;;;4994499;28;20466;-83
2023/12/04 06:45:12;;;;;;;3.17;2.97;;;21.30;55.10;;;;;;4987221;28;20459;-80
2023/12/04 06:47:44;;;;;;;3.00;2.80;;;21.30;55.10;;;;;;4993859;28;20465;-80
2023/12/04 06:50:12;;;;;;;3.57;2.80;;;21.30;55.10;;;;;;4998612;28;20810;-79
2023/12/04 06:52:40;;;;;;;3.33;3.03;;;21.20;55.10;;;;;;4991818;28;20460;-79
2023/12/04 06:55:09;;;;;;;3.40;2.97;;;21.20;55.20;;;;;;4985828;28;20464;-77
2023/12/04 06:57:39;;;;;;;2.87;2.67;;;21.20;55.20;;;;;;4983963;28;20486;-78
2023/12/04 07:00:08;;;;;;;2.83;2.63;;;21.20;55.20;;;;;;4979549;28;20493;-81
2023/12/04 07:02:49;;;;;;;3.33;3.10;;;21.20;55.30;;;;;;4989309;28;21155;-78
2023/12/04 07:05:18;;;;;;;2.60;2.43;;;21.20;55.30;;;;;;4992472;28;20476;-78
2023/12/04 07:07:46;;;;;;;2.90;2.70;;;21.20;55.30;;;;;;4989269;28;20439;-78
2023/12/04 07:10:15;;;;;;;2.93;2.73;;;21.20;55.30;;;;;;4992239;28;20450;-80
2023/12/04 07:12:46;;;;;;;3.30;3.10;;;21.20;55.30;;;;;;4991787;28;20438;-78
2023/12/04 07:15:14;;;;;;;2.53;2.43;;;21.20;55.40;;;;;;4985944;28;20487;-81
2023/12/04 07:17:43;;;;;;;3.30;3.00;;;21.20;55.40;;;;;;4970464;28;20454;-79
2023/12/04 07:20:12;;;;;;;3.00;2.80;;;21.20;55.40;;;;;;4996204;28;21016;-78
2023/12/04 07:22:41;;;;;;;2.77;2.60;;;21.20;55.40;;;;;;4979721;28;20516;-78
2023/12/04 07:25:09;;;;;;;2.80;2.60;;;21.20;55.40;;;;;;4993268;28;20469;-83
2023/12/04 07:27:38;;;;;;;2.83;2.63;;;21.20;55.40;;;;;;4980678;28;20808;-78
2023/12/04 07:30:09;;;;;;;2.97;2.77;;;21.20;55.40;;;;;;4975436;28;20455;-78
2023/12/04 07:32:37;;;;;;;2.83;2.57;;;21.20;55.40;;;;;;4975927;28;20452;-77
2023/12/04 07:35:07;;;;;;;3.00;2.80;;;21.20;55.40;;;;;;5001261;28;20476;-78
2023/12/04 07:37:35;;;;;;;2.80;2.60;;;21.20;55.50;;;;;;4993307;28;20460;-79
2023/12/04 07:40:05;;;;;;;2.97;2.77;;;21.20;55.40;;;;;;4982711;28;20485;-80
2023/12/04 07:42:34;;;;;;;3.83;3.47;;;21.20;55.40;;;;;;4985916;28;21696;-80
2023/12/04 07:45:02;;;;;;;2.70;2.50;;;21.20;55.40;;;;;;4989439;28;20461;-78
2023/12/04 07:47:32;;;;;;;3.40;3.10;;;21.20;55.50;;;;;;4991924;28;20463;-80
2023/12/04 07:50:00;;;;;;;5.90;3.60;;;21.20;55.50;;;;;;4990566;28;20464;-82
2023/12/04 07:52:29;;;;;;;4.93;4.43;;;21.10;55.50;;;;;;4991896;28;20462;-79
2023/12/04 07:54:57;;;;;;;4.93;4.53;;;21.10;55.40;;;;;;4992765;28;20475;-78
2023/12/04 07:57:26;;;;;;;5.67;4.57;;;21.00;55.20;;;;;;4992275;28;20538;-79
2023/12/04 07:59:55;;;;;;;5.07;4.57;;;21.00;54.90;;;;;;4992226;28;20457;-78
2023/12/04 08:02:23;;;;;;;5.80;5.30;;;21.00;54.80;;;;;;4992413;28;20459;-82
2023/12/04 08:04:53;;;;;;;5.53;5.03;;;21.00;54.60;;;;;;4992334;28;20464;-79
2023/12/04 08:07:21;;;;;;;6.00;5.50;;;20.90;54.40;;;;;;4992294;28;20456;-78
2023/12/04 08:09:49;;;;;;;5.57;4.60;;;20.90;54.00;;;;;;4989076;28;21008;-78
2023/12/04 08:12:18;;;;;;;4.93;4.53;;;20.90;53.90;;;;;;4991029;28;20895;-77
2023/12/04 08:14:47;;;;;;;5.53;4.10;;;20.90;53.90;;;;;;4990453;28;20471;-81
2023/12/04 08:17:15;;;;;;;5.43;4.93;;;21.00;53.80;;;;;;4992209;28;20459;-84
2023/12/04 08:19:43;;;;;;;4.90;3.83;;;21.00;53.80;;;;;;5001549;28;20470;-85
2023/12/04 08:22:13;;;;;;;6.00;5.50;;;21.00;53.70;;;;;;4992325;28;20493;-84
2023/12/04 08:24:41;;;;;;;9.47;4.57;;;21.10;53.70;;;;;;4996772;28;20477;-78
2023/12/04 08:27:10;;;;;;;5.80;5.30;;;21.10;53.40;;;;;;4997448;28;21346;-79
2023/12/04 08:29:41;;;;;;;4.70;4.30;;;21.10;53.00;;;;;;5000784;28;20527;-77
2023/12/04 08:32:09;;;;;;;16.40;6.10;;;21.00;52.90;;;;;;4997542;28;20454;-77
2023/12/04 08:34:37;;;;;;;7.80;7.00;;;21.00;52.70;;;;;;5002738;28;20841;-77
2023/12/04 08:37:05;;;;;;;5.70;5.20;;;21.00;52.70;;;;;;4993835;28;20884;-78
2023/12/04 08:39:35;;;;;;;5.30;4.87;;;20.90;52.70;;;;;;4998915;28;20457;-78
2023/12/04 08:42:04;;;;;;;5.60;5.20;;;20.90;52.50;;;;;;4997836;28;20557;-80
2023/12/04 08:44:40;;;;;;;5.47;4.97;;;20.90;52.40;;;;;;4996798;28;20476;-76
2023/12/04 08:47:08;;;;;;;6.03;5.50;;;20.90;52.10;;;;;;4996661;28;20459;-76
2023/12/04 08:49:40;;;;;;;5.93;5.43;;;20.80;52.30;;;;;;5001130;28;20465;-77
2023/12/04 08:52:16;;;;;;;6.03;5.50;;;20.80;52.20;;;;;;4996614;28;20927;-78
2023/12/04 08:54:46;;;;;;;6.30;5.70;;;20.80;52.10;;;;;;5001976;28;20475;-80
2023/12/04 08:57:14;;;;;;;6.80;5.97;;;20.80;51.90;;;;;;4999646;28;20463;-83
2023/12/04 08:59:43;;;;;;;6.13;5.53;;;20.80;51.80;;;;;;5000623;28;20477;-79
2023/12/04 09:02:11;;;;;;;5.80;5.40;;;20.80;51.80;;;;;;4991261;28;20463;-78
2023/12/04 09:04:42;;;;;;;5.67;5.17;;;20.80;51.70;;;;;;4988583;28;20484;-77
2023/12/04 09:07:10;;;;;;;6.43;5.93;;;20.80;51.60;;;;;;4996861;28;20478;-80
2023/12/04 09:10:01;;;;;;;6.07;5.47;;;20.80;51.50;;;;;;4988506;28;20454;-79
2023/12/04 09:12:38;;;;;;;6.00;5.50;;;20.70;51.40;;;;;;4991856;28;20940;-78
2023/12/04 09:15:07;;;;;;;5.83;5.33;;;20.70;51.40;;;;;;4981299;28;20489;-79
2023/12/04 09:17:36;;;;;;;6.40;5.80;;;20.70;51.30;;;;;;4991407;28;20922;-77
2023/12/04 09:20:08;;;;;;;5.83;5.33;;;20.70;51.30;;;;;;4986932;28;20448;-77
2023/12/04 09:22:38;;;;;;;6.00;5.50;;;20.70;51.20;;;;;;4977415;28;20457;-77
2023/12/04 09:25:24;;;;;;;8.03;6.53;;;20.80;51.10;;;;;;4979614;28;20458;-80
2023/12/04 09:27:52;;;;;;;6.00;5.40;;;20.80;51.00;;;;;;4987933;28;20449;-77
2023/12/04 09:30:21;;;;;;;6.40;5.83;;;20.80;50.80;;;;;;4992396;28;20489;-79
2023/12/04 09:32:49;;;;;;;5.83;5.33;;;20.80;50.80;;;;;;4989222;28;20859;-78
2023/12/04 09:35:18;;;;;;;7.40;6.70;;;20.80;50.60;;;;;;4991832;28;20480;-77
2023/12/04 09:37:50;;;;;;;6.50;6.00;;;20.80;50.60;;;;;;4985733;28;20535;-78
2023/12/04 09:40:18;;;;;;;6.30;5.70;;;20.80;50.60;;;;;;4979180;28;20446;-76
2023/12/04 09:42:48;;;;;;;8.00;7.23;;;20.80;50.50;;;;;;4988626;28;20460;-79
2023/12/04 09:45:19;;;;;;;7.57;6.97;;;20.80;49.90;;;;;;4989599;28;20454;-80
2023/12/04 09:47:49;;;;;;;6.90;6.20;;;20.80;50.00;;;;;;4980742;28;20450;-78
2023/12/04 09:50:20;;;;;;;6.80;6.10;;;20.80;50.10;;;;;;4997519;28;20457;-77
2023/12/04 09:52:51;;;;;;;7.10;6.50;;;20.80;49.50;;;;;;4985920;28;20534;-77
2023/12/04 09:55:19;;;;;;;7.20;6.50;;;20.80;50.00;;;;;;4990684;28;20475;-77
2023/12/04 09:57:49;;;;;;;7.70;7.00;;;20.80;50.30;;;;;;4987077;28;20457;-77
2023/12/04 10:00:22;;;;;;;6.47;5.87;;;20.80;49.70;;;;;;4989794;28;20478;-78
2023/12/04 10:02:51;;;;;;;7.70;7.00;;;20.80;50.10;;;;;;4982224;28;20485;-81
2023/12/04 10:05:20;;;;;;;7.57;6.90;;;20.80;50.30;;;;;;4989945;28;20463;-78
2023/12/04 10:07:49;;;;;;;7.07;6.47;;;20.90;50.20;;;;;;4985974;28;20450;-78
2023/12/04 10:10:18;;;;;;;9.70;8.80;;;20.90;50.00;;;;;;4996764;28;20926;-78
2023/12/04 10:12:46;;;;;;;7.07;6.10;;;20.90;49.00;;;;;;4993568;28;20446;-77
2023/12/04 10:15:16;;;;;;;7.00;6.40;;;20.90;50.00;;;;;;4989092;28;20478;-80
2023/12/04 10:17:45;;;;;;;8.00;7.20;;;20.90;50.00;;;;;;4987537;28;21359;-77
2023/12/04 10:20:17;;;;;;;7.47;6.77;;;21.00;49.80;;;;;;4986025;28;20805;-79
2023/12/04 10:22:56;;;;;;;7.20;6.30;;;21.00;49.90;;;;;;4976055;28;20449;-79
2023/12/04 10:25:26;;;;;;;7.10;6.40;;;21.00;49.70;;;;;;5001722;28;20504;-80
2023/12/04 10:27:55;;;;;;;7.47;6.77;;;21.00;49.50;;;;;;4994652;28;20464;-78
2023/12/04 10:30:31;;;;;;;7.83;7.13;;;21.00;49.50;;;;;;4988611;28;20960;-79
2023/12/04 10:33:01;;;;;;;7.17;6.57;;;21.00;49.50;;;;;;4989651;28;20466;-79
2023/12/04 10:35:31;;;;;;;7.20;6.50;;;21.00;49.40;;;;;;4998494;28;20474;-79
2023/12/04 10:38:00;;;;;;;8.03;7.40;;;21.00;49.40;;;;;;4993694;28;20451;-78
2023/12/04 10:40:31;;;;;;;7.43;6.73;;;21.00;49.30;;;;;;4991746;28;20528;-78
2023/12/04 10:43:13;;;;;;;7.50;6.80;;;21.00;49.10;;;;;;4986136;28;20458;-77
2023/12/04 10:45:45;;;;;;;7.63;7.03;;;21.00;49.10;;;;;;4992074;28;20512;-80
2023/12/04 10:48:15;;;;;;;8.43;6.90;;;21.00;49.10;;;;;;5003481;28;20866;-77
2023/12/04 10:50:45;;;;;;;8.90;8.00;;;21.00;49.10;;;;;;4995754;28;20939;-76
2023/12/04 10:53:14;;;;;;;7.60;6.90;;;21.00;49.00;;;;;;4989159;28;20468;-77
2023/12/04 10:55:44;;;;;;;7.97;7.17;;;21.00;48.90;;;;;;4986095;28;20474;-77
2023/12/04 10:58:14;;;;;;;8.87;8.00;;;21.00;48.80;;;;;;4990547;28;20462;-82
2023/12/04 11:00:46;;;;;;;8.00;7.20;;;21.00;48.80;;;;;;4985129;28;20458;-77
2023/12/04 11:03:22;;;;;;;8.57;7.80;;;20.90;48.80;;;;;;4989372;28;20534;-78
2023/12/04 11:06:01;;;;;;;9.07;8.10;;;21.00;48.80;;;;;;4989249;28;20455;-77
2023/12/04 11:08:30;;;;;;;8.73;7.83;;;21.00;48.80;;;;;;4995238;28;20577;-77
2023/12/04 11:11:04;;;;;;;9.00;8.13;;;21.00;48.70;;;;;;5006603;28;20446;-80
2023/12/04 11:13:36;;;;;;;9.67;8.67;;;21.00;48.60;;;;;;4997198;28;20993;-78
2023/12/04 11:16:13;;;;;;;9.43;8.20;;;21.00;48.50;;;;;;4998349;28;20991;-77
2023/12/04 11:18:50;;;;;;;9.53;8.57;;;21.00;48.40;;;;;;4990764;28;20437;-79
2023/12/04 11:21:21;;;;;;;9.30;8.50;;;21.00;48.40;;;;;;4992196;28;20537;-79
2023/12/04 11:23:50;;;;;;;9.20;8.33;;;21.10;48.40;;;;;;4988672;28;20939;-77
2023/12/04 11:26:19;;;;;;;8.43;7.53;;;21.00;48.40;;;;;;5003439;28;20496;-81
2023/12/04 11:28:48;;;;;;;9.80;8.90;;;21.10;48.50;;;;;;4989624;28;20448;-80
2023/12/04 11:31:18;;;;;;;10.47;9.40;;;21.00;48.40;;;;;;4990108;28;20476;-78
2023/12/04 11:33:46;;;;;;;8.97;8.07;;;21.10;48.40;;;;;;4993262;28;20910;-78
2023/12/04 11:36:16;;;;;;;10.33;9.20;;;21.10;48.40;;;;;;4998176;28;20485;-80
2023/12/04 11:38:47;;;;;;;10.33;9.00;;;21.10;48.30;;;;;;4991705;28;20571;-82
2023/12/04 11:41:17;;;;;;;11.57;9.87;;;21.10;48.00;;;;;;4991581;28;20464;-78
2023/12/04 11:43:51;;;;;;;10.50;9.50;;;21.10;48.10;;;;;;4991485;28;20809;-80
2023/12/04 11:46:23;;;;;;;10.17;9.17;;;21.10;48.00;;;;;;4990594;28;20459;-81
2023/12/04 11:48:55;;;;;;;10.53;8.57;;;21.20;48.00;;;;;;4993679;28;20446;-78
2023/12/04 11:51:50;;;;;;;9.30;8.40;;;21.20;48.00;;;;;;4992617;28;20506;-77
2023/12/04 11:54:22;;;;;;;11.37;9.23;;;21.20;47.90;;;;;;4989259;28;20465;-80
2023/12/04 11:57:20;;;;;;;9.80;8.90;;;21.30;47.10;;;;;;4993199;28;20478;-78
2023/12/04 11:59:48;;;;;;;9.60;8.60;;;21.30;47.80;;;;;;4993470;28;20466;-80
2023/12/04 12:02:18;;;;;;;9.70;8.80;;;21.30;47.80;;;;;;4993941;28;20464;-76
2023/12/04 12:04:47;;;;;;;10.13;9.20;;;21.30;47.80;;;;;;4993385;28;20618;-80
2023/12/04 12:07:16;;;;;;;10.57;9.53;;;21.30;47.80;;;;;;4988411;28;20474;-79
2023/12/04 12:09:45;;;;;;;9.97;8.97;;;21.30;47.70;;;;;;4996102;28;20453;-77
2023/12/04 12:12:14;;;;;;;10.40;9.30;;;21.30;47.50;;;;;;4993790;28;20495;-79
2023/12/04 12:14:43;;;;;;;9.20;8.40;;;21.30;47.50;;;;;;4995619;28;20793;-78
2023/12/04 12:17:11;;;;;;;8.83;8.03;;;21.20;47.50;;;;;;4996465;28;20476;-79
2023/12/04 12:19:40;;;;;;;9.67;8.00;;;21.20;47.60;;;;;;4998782;28;20471;-78
2023/12/04 12:22:09;;;;;;;10.13;9.20;;;21.20;47.70;;;;;;4989812;28;20471;-79
2023/12/04 12:24:37;;;;;;;10.50;9.50;;;21.20;47.80;;;;;;4988227;28;20954;-78
2023/12/04 12:27:06;;;;;;;11.73;9.17;;;21.10;47.80;;;;;;4991815;28;20467;-77
2023/12/04 12:29:35;;;;;;;10.40;9.33;;;21.10;48.00;;;;;;4984746;28;20462;-80
2023/12/04 12:32:04;;;;;;;10.97;9.47;;;21.10;48.00;;;;;;4984824;28;20491;-78
2023/12/04 12:34:35;;;;;;;11.43;10.23;;;21.00;48.00;;;;;;4987996;28;20471;-78
2023/12/04 12:37:06;;;;;;;11.03;9.23;;;21.00;48.10;;;;;;4976130;28;20479;-78
2023/12/04 12:39:34;;;;;;;13.47;9.97;;;21.00;48.10;;;;;;4980720;28;20458;-79
2023/12/04 12:42:04;;;;;;;12.43;11.23;;;21.00;48.10;;;;;;4986983;28;20453;-78
2023/12/04 12:44:40;;;;;;;11.80;10.60;;;21.00;48.10;;;;;;4982167;28;20465;-79
2023/12/04 12:47:08;;;;;;;9.70;8.80;;;21.00;48.20;;;;;;4981784;28;20476;-78
2023/12/04 12:49:39;;;;;;;9.90;9.00;;;21.00;48.40;;;;;;4986322;28;20463;-79
2023/12/04 12:52:11;;;;;;;10.90;9.20;;;21.00;48.60;;;;;;4991026;28;20490;-78
2023/12/04 12:54:40;;;;;;;10.33;8.70;;;21.00;48.70;;;;;;4988588;28;20459;-78
2023/12/04 12:57:09;;;;;;;9.73;8.80;;;21.00;48.70;;;;;;4979870;28;20579;-80